createdAt,value
2023-03-06T00:00:49.284Z,6.03
2023-03-06T00:03:16.700Z,5.88
2023-03-06T00:05:43.475Z,5.65
2023-03-06T00:08:10.572Z,6.47
2023-03-06T00:10:40.542Z,5.28
2023-03-06T00:13:14.837Z,5.88
2023-03-06T00:15:42.675Z,5.47
2023-03-06T00:18:09.415Z,4.97
2023-03-06T00:20:36.687Z,4.95
2023-03-06T00:23:03.658Z,4.93
2023-03-06T00:25:30.407Z,4.47
2023-03-06T00:27:57.193Z,3.15
2023-03-06T00:30:24.864Z,3.25
2023-03-06T00:32:53.304Z,3.10
2023-03-06T00:35:20.579Z,3.20
2023-03-06T00:37:47.396Z,3.20
2023-03-06T00:40:17.180Z,2.70
2023-03-06T00:42:44.391Z,2.35
2023-03-06T00:45:11.217Z,3.45
2023-03-06T00:47:38.030Z,2.50
2023-03-06T00:50:06.926Z,2.38
2023-03-06T00:52:33.793Z,2.45
2023-03-06T00:55:00.411Z,2.45
2023-03-06T00:57:27.097Z,2.47
2023-03-06T00:59:53.683Z,2.40
2023-03-06T01:02:20.369Z,2.42
2023-03-06T01:04:47.542Z,2.45
2023-03-06T01:07:14.200Z,2.20
2023-03-06T01:09:41.135Z,2.38
2023-03-06T01:12:08.166Z,2.53
2023-03-06T01:14:34.918Z,2.45
2023-03-06T01:17:01.552Z,2.20
2023-03-06T01:19:28.193Z,2.40
2023-03-06T01:21:54.920Z,2.30
2023-03-06T01:24:23.999Z,2.72
2023-03-06T01:26:50.598Z,2.63
2023-03-06T01:29:17.305Z,2.30
2023-03-06T01:31:44.032Z,2.20
2023-03-06T01:34:10.730Z,2.00
2023-03-06T01:36:37.379Z,2.47
2023-03-06T01:39:04.119Z,2.60
2023-03-06T01:41:32.750Z,2.10
2023-03-06T01:43:59.626Z,2.60
2023-03-06T01:46:28.967Z,2.50
2023-03-06T01:49:21.856Z,2.53
2023-03-06T01:52:00.614Z,2.40
2023-03-06T01:54:36.392Z,2.22
2023-03-06T01:57:08.514Z,1.85
2023-03-06T01:59:38.559Z,2.28
2023-03-06T02:02:08.747Z,2.35
2023-03-06T02:04:39.022Z,2.20
2023-03-06T02:07:07.535Z,2.22
2023-03-06T02:09:35.611Z,2.28
2023-03-06T02:12:08.362Z,2.00
2023-03-06T02:14:35.235Z,2.05
2023-03-06T02:17:02.584Z,2.55
2023-03-06T02:19:51.020Z,2.53
2023-03-06T02:22:17.662Z,2.35
2023-03-06T02:25:02.028Z,2.55
2023-03-06T02:27:28.817Z,2.10
2023-03-06T02:29:55.601Z,2.30
2023-03-06T02:32:22.243Z,2.78
2023-03-06T02:34:57.960Z,2.70
2023-03-06T02:37:27.491Z,3.10
2023-03-06T02:40:00.721Z,2.67
2023-03-06T02:42:31.400Z,2.88
2023-03-06T02:45:00.870Z,2.70
2023-03-06T02:47:27.479Z,3.83
2023-03-06T02:49:54.098Z,2.85
2023-03-06T02:52:20.704Z,2.67
2023-03-06T02:54:47.323Z,3.25
2023-03-06T02:57:13.967Z,2.83
2023-03-06T02:59:40.695Z,3.03
2023-03-06T03:02:07.429Z,2.60
2023-03-06T03:04:34.852Z,2.55
2023-03-06T03:07:01.595Z,2.83
2023-03-06T03:09:28.560Z,2.95
2023-03-06T03:11:55.325Z,2.53
2023-03-06T03:14:23.978Z,3.03
2023-03-06T03:16:50.569Z,2.60
2023-03-06T03:19:17.215Z,2.72
2023-03-06T03:21:43.885Z,2.90
2023-03-06T03:24:10.590Z,3.03
2023-03-06T03:26:37.311Z,3.42
2023-03-06T03:29:05.171Z,2.70
2023-03-06T03:31:32.606Z,2.83
2023-03-06T03:34:00.135Z,2.63
2023-03-06T03:36:27.569Z,3.42
2023-03-06T03:38:54.549Z,2.83
2023-03-06T03:41:21.656Z,4.45
2023-03-06T03:43:48.446Z,3.65
2023-03-06T03:46:15.176Z,2.90
2023-03-06T03:48:41.833Z,3.20
2023-03-06T03:51:11.263Z,3.33
2023-03-06T03:53:38.803Z,3.10
2023-03-06T03:56:06.357Z,3.60
2023-03-06T03:58:32.984Z,3.95
2023-03-06T04:00:59.808Z,2.95
2023-03-06T04:03:26.485Z,3.83
2023-03-06T04:05:55.426Z,3.78
2023-03-06T04:08:22.535Z,3.88
2023-03-06T04:10:49.150Z,4.03
2023-03-06T04:13:15.921Z,3.60
2023-03-06T04:15:42.500Z,3.95
2023-03-06T04:18:09.104Z,3.92
2023-03-06T04:20:35.691Z,3.80
2023-03-06T04:23:02.380Z,4.18
2023-03-06T04:25:28.986Z,3.88
2023-03-06T04:27:55.609Z,3.75
2023-03-06T04:30:22.494Z,4.13
2023-03-06T04:32:49.372Z,4.57
2023-03-06T04:35:16.567Z,4.97
2023-03-06T04:37:43.287Z,4.65
2023-03-06T04:40:17.717Z,4.55
2023-03-06T04:42:44.453Z,4.50
2023-03-06T04:45:11.422Z,4.13
2023-03-06T04:47:38.018Z,4.03
2023-03-06T04:50:05.078Z,4.50
2023-03-06T04:52:32.051Z,3.90
2023-03-06T04:54:58.815Z,3.33
2023-03-06T04:57:25.431Z,4.20
2023-03-06T04:59:52.066Z,4.63
2023-03-06T05:02:18.729Z,4.22
2023-03-06T05:04:45.341Z,4.28
2023-03-06T05:07:12.101Z,4.32
2023-03-06T05:09:39.194Z,3.65
2023-03-06T05:12:06.059Z,4.50
2023-03-06T05:14:32.736Z,4.30
2023-03-06T05:16:59.479Z,4.05
2023-03-06T05:19:26.084Z,4.32
2023-03-06T05:21:52.753Z,4.72
2023-03-06T05:24:19.370Z,3.72
2023-03-06T05:26:46.039Z,4.80
2023-03-06T05:29:12.723Z,4.43
2023-03-06T05:31:39.392Z,3.97
2023-03-06T05:34:06.025Z,3.60
2023-03-06T05:36:33.119Z,4.13
2023-03-06T05:38:59.701Z,4.32
2023-03-06T05:41:26.316Z,4.03
2023-03-06T05:43:53.382Z,4.50
2023-03-06T05:46:20.102Z,4.32
2023-03-06T05:48:47.101Z,3.83
2023-03-06T05:51:13.731Z,4.28
2023-03-06T05:53:40.340Z,4.50
2023-03-06T05:56:11.238Z,3.90
2023-03-06T05:58:37.925Z,3.53
2023-03-06T06:01:14.707Z,4.15
2023-03-06T06:03:41.549Z,4.30
2023-03-06T06:06:10.799Z,4.25
2023-03-06T06:08:38.325Z,4.55
2023-03-06T06:11:06.208Z,4.93
2023-03-06T06:13:33.193Z,3.42
2023-03-06T06:16:00.333Z,3.40
2023-03-06T06:18:27.012Z,4.30
2023-03-06T06:20:55.866Z,4.25
2023-03-06T06:23:22.672Z,4.50
2023-03-06T06:25:49.278Z,3.92
2023-03-06T06:28:15.891Z,4.53
2023-03-06T06:30:42.595Z,3.60
2023-03-06T06:33:09.218Z,3.50
2023-03-06T06:35:37.360Z,3.58
2023-03-06T06:38:03.997Z,3.75
2023-03-06T06:40:30.682Z,3.33
2023-03-06T06:42:57.293Z,3.20
2023-03-06T06:45:23.917Z,3.45
2023-03-06T06:47:50.718Z,3.47
2023-03-06T06:50:17.499Z,3.92
2023-03-06T06:52:44.229Z,3.17
2023-03-06T06:55:11.766Z,2.97
2023-03-06T06:57:38.532Z,3.40
2023-03-06T07:00:06.983Z,3.17
2023-03-06T07:02:33.697Z,3.13
2023-03-06T07:05:04.752Z,2.88
2023-03-06T07:07:34.759Z,3.63
2023-03-06T07:10:01.572Z,3.65
2023-03-06T07:12:28.182Z,3.50
2023-03-06T07:14:54.880Z,4.18
2023-03-06T07:17:21.537Z,3.47
2023-03-06T07:19:48.642Z,3.08
2023-03-06T07:22:15.343Z,3.47
2023-03-06T07:24:41.981Z,3.25
2023-03-06T07:27:08.625Z,3.15
2023-03-06T07:29:35.451Z,3.60
2023-03-06T07:32:02.281Z,3.55
2023-03-06T07:34:29.475Z,3.08
2023-03-06T07:36:56.106Z,3.53
2023-03-06T07:39:22.723Z,2.70
2023-03-06T07:41:49.399Z,2.67
2023-03-06T07:44:15.989Z,2.67
2023-03-06T07:46:42.613Z,2.80
2023-03-06T07:49:09.315Z,3.08
2023-03-06T07:51:35.991Z,3.33
2023-03-06T07:54:03.397Z,2.40
2023-03-06T07:56:30.086Z,3.40
2023-03-06T07:58:57.163Z,2.47
2023-03-06T08:01:24.371Z,2.85
2023-03-06T08:03:52.319Z,2.83
2023-03-06T08:06:23.894Z,2.70
2023-03-06T08:08:51.984Z,3.33
2023-03-06T08:11:20.594Z,2.65
2023-03-06T08:13:48.885Z,2.65
2023-03-06T08:16:17.622Z,2.70
2023-03-06T08:18:46.152Z,2.78
2023-03-06T08:21:15.946Z,2.53
2023-03-06T08:23:43.763Z,2.85
2023-03-06T08:26:16.037Z,2.08
2023-03-06T08:28:43.101Z,2.03
2023-03-06T08:31:22.205Z,2.17
2023-03-06T08:33:48.982Z,2.63
2023-03-06T08:36:15.752Z,2.15
2023-03-06T08:38:42.355Z,1.55
2023-03-06T08:41:08.982Z,1.67
2023-03-06T08:43:36.122Z,1.92
2023-03-06T08:46:03.318Z,1.50
2023-03-06T08:48:30.309Z,1.23
2023-03-06T08:50:56.961Z,1.92
2023-03-06T08:53:40.412Z,1.58
2023-03-06T08:56:18.849Z,1.48
2023-03-06T08:58:47.744Z,1.38
2023-03-06T09:01:20.753Z,1.65
2023-03-06T09:03:47.498Z,1.52
2023-03-06T09:06:14.516Z,2.05
2023-03-06T09:08:44.966Z,1.10
2023-03-06T09:11:16.065Z,1.38
2023-03-06T09:13:43.450Z,1.05
2023-03-06T09:16:11.274Z,1.40
2023-03-06T09:18:38.157Z,1.27
2023-03-06T09:21:07.385Z,1.17
2023-03-06T09:23:34.888Z,1.13
2023-03-06T09:26:02.295Z,1.30
2023-03-06T09:28:29.337Z,1.60
2023-03-06T09:30:57.379Z,1.83
2023-03-06T09:33:24.480Z,1.67
2023-03-06T09:35:56.925Z,1.75
2023-03-06T09:38:26.983Z,1.90
2023-03-06T09:43:43.463Z,1.67
2023-03-06T09:46:30.052Z,0.90
2023-03-06T09:49:15.231Z,1.38
2023-03-06T09:52:20.328Z,1.40
2023-03-06T09:54:53.317Z,0.90
2023-03-06T09:57:26.884Z,1.42
2023-03-06T10:00:03.883Z,1.42
2023-03-06T10:02:49.555Z,1.20
2023-03-06T10:05:36.561Z,1.08
2023-03-06T10:08:06.590Z,1.08
2023-03-06T10:10:48.926Z,0.93
2023-03-06T10:13:26.925Z,1.08
2023-03-06T10:16:04.735Z,1.33
2023-03-06T10:18:31.974Z,1.00
2023-03-06T10:21:18.798Z,0.90
2023-03-06T10:26:33.646Z,1.08
2023-03-06T10:29:09.296Z,0.98
2023-03-06T10:31:38.676Z,1.30
2023-03-06T10:34:07.898Z,1.00
2023-03-06T10:36:34.605Z,0.77
2023-03-06T10:39:09.856Z,1.33
2023-03-06T10:41:38.346Z,1.00
2023-03-06T10:44:06.403Z,1.15
2023-03-06T10:46:45.911Z,1.00
2023-03-06T10:49:26.148Z,1.10
2023-03-06T10:52:19.137Z,1.48
2023-03-06T10:54:48.782Z,0.80
2023-03-06T10:57:21.136Z,1.02
2023-03-06T10:59:55.774Z,0.70
2023-03-06T11:02:36.435Z,1.02
2023-03-06T11:05:05.790Z,1.00
2023-03-06T11:07:36.193Z,0.85
2023-03-06T11:10:16.569Z,1.17
2023-03-06T11:12:44.052Z,0.90
2023-03-06T11:15:24.465Z,0.90
2023-03-06T11:17:52.811Z,0.80
2023-03-06T11:20:24.354Z,1.50
2023-03-06T11:23:07.604Z,0.98
2023-03-06T11:25:42.288Z,1.15
2023-03-06T11:28:26.928Z,1.27
2023-03-06T11:31:16.517Z,0.98
2023-03-06T11:33:52.701Z,1.80
2023-03-06T11:36:39.101Z,0.90
2023-03-06T11:39:18.366Z,1.10
2023-03-06T11:42:00.121Z,0.90
2023-03-06T11:44:42.136Z,1.17
2023-03-06T11:47:26.289Z,1.00
2023-03-06T11:50:08.243Z,0.77
2023-03-06T11:52:58.570Z,1.05
2023-03-06T11:55:47.771Z,1.05
2023-03-06T11:58:38.271Z,0.80
2023-03-06T12:01:13.089Z,0.65
2023-03-06T12:03:47.362Z,1.00
2023-03-06T12:06:38.749Z,1.02
2023-03-06T12:09:14.481Z,1.17
2023-03-06T12:12:01.674Z,1.00
2023-03-06T12:14:50.071Z,1.17
2023-03-06T12:17:26.602Z,0.88
2023-03-06T12:20:08.085Z,1.40
2023-03-06T12:22:34.670Z,1.10
2023-03-06T12:25:32.954Z,1.00
2023-03-06T12:28:27.002Z,1.45
2023-03-06T12:31:24.615Z,1.15
2023-03-06T12:34:12.053Z,1.05
2023-03-06T12:39:48.576Z,1.00
2023-03-06T12:42:23.575Z,0.80
2023-03-06T12:45:10.650Z,1.13
2023-03-06T12:47:45.270Z,0.98
2023-03-06T12:50:34.167Z,0.88
2023-03-06T12:53:04.310Z,0.70
2023-03-06T12:55:47.365Z,0.90
2023-03-06T12:58:29.257Z,0.88
2023-03-06T13:01:03.696Z,0.88
2023-03-06T13:03:52.517Z,0.68
2023-03-06T13:06:50.222Z,0.73
2023-03-06T13:09:35.241Z,1.05
2023-03-06T13:12:19.885Z,0.70
2023-03-06T13:14:54.138Z,0.80
2023-03-06T13:17:24.156Z,1.27
2023-03-06T13:20:13.969Z,1.10
2023-03-06T13:22:48.001Z,0.88
2023-03-06T13:25:18.134Z,0.90
2023-03-06T13:28:03.372Z,1.10
2023-03-06T13:30:39.020Z,0.80
2023-03-06T13:33:25.889Z,0.95
2023-03-06T13:36:00.603Z,0.68
2023-03-06T13:38:35.984Z,0.90
2023-03-06T13:41:20.905Z,0.82
2023-03-06T13:43:58.419Z,0.57
2023-03-06T13:46:35.350Z,0.57
2023-03-06T13:49:07.790Z,0.80
2023-03-06T13:52:21.251Z,0.60
2023-03-06T13:55:18.287Z,0.50
2023-03-06T13:57:50.794Z,0.70
2023-03-06T14:00:29.375Z,0.70
2023-03-06T14:03:24.244Z,0.63
2023-03-06T14:05:52.045Z,1.45
2023-03-06T14:08:21.620Z,0.70
2023-03-06T14:10:59.296Z,0.50
2023-03-06T14:13:41.883Z,0.80
2023-03-06T14:16:22.618Z,1.00
2023-03-06T14:18:52.105Z,0.85
2023-03-06T14:21:28.659Z,0.75
2023-03-06T14:24:03.592Z,0.60
2023-03-06T14:26:41.473Z,0.77
2023-03-06T14:29:21.159Z,0.82
2023-03-06T14:31:51.111Z,0.80
2023-03-06T14:34:33.233Z,0.93
2023-03-06T14:37:05.718Z,0.73
2023-03-06T14:39:39.436Z,2.72
2023-03-06T14:42:06.078Z,1.08
2023-03-06T14:44:32.779Z,1.30
2023-03-06T14:47:23.322Z,0.95
2023-03-06T14:50:28.433Z,1.17
2023-03-06T14:53:25.906Z,0.80
2023-03-06T14:56:02.495Z,1.05
2023-03-06T14:58:51.329Z,0.68
2023-03-06T15:01:37.069Z,0.60
2023-03-06T15:04:16.943Z,0.90
2023-03-06T15:06:45.031Z,1.08
2023-03-06T15:09:30.241Z,0.88
2023-03-06T15:12:18.488Z,0.98
2023-03-06T15:15:04.649Z,0.80
2023-03-06T15:17:38.131Z,0.70
2023-03-06T15:20:09.828Z,1.13
2023-03-06T15:22:41.786Z,0.73
2023-03-06T15:25:24.708Z,2.08
2023-03-06T15:28:01.410Z,0.90
2023-03-06T15:30:31.488Z,0.80
2023-03-06T15:33:18.073Z,0.68
2023-03-06T15:36:00.874Z,0.80
2023-03-06T15:38:34.030Z,1.15
2023-03-06T15:41:02.193Z,0.90
2023-03-06T15:43:35.156Z,0.93
2023-03-06T15:46:01.891Z,0.68
2023-03-06T15:48:28.884Z,0.85
2023-03-06T15:50:55.749Z,0.73
2023-03-06T15:53:22.941Z,0.80
2023-03-06T15:55:51.353Z,0.88
2023-03-06T15:58:23.484Z,0.93
2023-03-06T16:00:50.663Z,0.88
2023-03-06T16:03:17.962Z,0.70
2023-03-06T16:05:46.091Z,1.27
2023-03-06T16:08:15.647Z,1.00
2023-03-06T16:10:44.642Z,0.77
2023-03-06T16:13:15.185Z,0.70
2023-03-06T16:15:47.723Z,0.80
2023-03-06T16:18:15.709Z,1.00
2023-03-06T16:20:44.065Z,0.60
2023-03-06T16:23:11.005Z,0.70
2023-03-06T16:25:40.492Z,0.77
2023-03-06T16:28:16.929Z,0.88
2023-03-06T16:30:45.095Z,0.50
2023-03-06T16:33:12.783Z,0.82
2023-03-06T16:35:41.329Z,0.73
2023-03-06T16:38:10.570Z,0.57
2023-03-06T16:40:38.053Z,0.82
2023-03-06T16:43:05.534Z,0.60
2023-03-06T16:45:37.331Z,0.70
2023-03-06T16:48:06.345Z,0.60
2023-03-06T16:50:37.988Z,0.60
2023-03-06T16:53:06.080Z,0.40
2023-03-06T16:55:33.018Z,0.50
2023-03-06T16:58:01.184Z,0.50
2023-03-06T17:00:33.782Z,0.82
2023-03-06T17:03:01.807Z,0.50
2023-03-06T17:05:29.350Z,0.50
2023-03-06T17:07:56.456Z,0.30
2023-03-06T17:10:26.358Z,0.63
2023-03-06T17:12:53.851Z,1.25
2023-03-06T17:15:21.012Z,0.60
2023-03-06T17:17:47.836Z,0.50
2023-03-06T17:20:18.362Z,0.40
2023-03-06T17:22:46.024Z,0.57
2023-03-06T17:25:12.686Z,0.40
2023-03-06T17:27:39.333Z,0.50
2023-03-06T17:30:06.913Z,1.00
2023-03-06T17:32:33.748Z,0.77
2023-03-06T17:35:00.577Z,0.43
2023-03-06T17:37:27.259Z,0.57
2023-03-06T17:39:53.971Z,0.60
2023-03-06T17:42:20.699Z,0.65
2023-03-06T17:44:48.362Z,0.65
2023-03-06T17:47:15.231Z,0.50
2023-03-06T17:49:41.879Z,0.52
2023-03-06T17:52:08.662Z,0.70
2023-03-06T17:54:35.949Z,0.57
2023-03-06T17:57:04.495Z,0.50
2023-03-06T17:59:34.247Z,0.63
2023-03-06T18:02:01.748Z,0.80
2023-03-06T18:04:28.829Z,1.13
2023-03-06T18:06:57.034Z,1.30
2023-03-06T18:09:25.270Z,1.20
2023-03-06T18:11:51.937Z,1.23
2023-03-06T18:14:18.761Z,1.88
2023-03-06T18:16:45.565Z,1.38
2023-03-06T18:19:12.551Z,1.10
2023-03-06T18:21:40.047Z,1.50
2023-03-06T18:24:07.300Z,1.30
2023-03-06T18:26:33.964Z,1.23
2023-03-06T18:29:03.847Z,1.70
2023-03-06T18:31:34.681Z,1.40
2023-03-06T18:34:04.350Z,1.73
2023-03-06T18:36:33.085Z,1.75
2023-03-06T18:39:03.607Z,1.52
2023-03-06T18:41:31.104Z,0.90
2023-03-06T18:43:59.959Z,0.95
2023-03-06T18:46:30.454Z,1.50
2023-03-06T18:48:57.072Z,1.50
2023-03-06T18:51:23.746Z,1.10
2023-03-06T18:53:50.504Z,1.20
2023-03-06T18:56:21.175Z,1.45
2023-03-06T18:58:54.912Z,1.42
2023-03-06T19:01:23.204Z,1.50
2023-03-06T19:03:50.469Z,1.85
2023-03-06T19:06:18.127Z,1.38
2023-03-06T19:08:44.833Z,1.55
2023-03-06T19:11:16.137Z,1.30
2023-03-06T19:13:43.933Z,1.70
2023-03-06T19:16:17.864Z,1.83
2023-03-06T19:18:44.618Z,1.50
2023-03-06T19:21:16.391Z,1.20
2023-03-06T19:23:43.543Z,1.00
2023-03-06T19:26:10.508Z,1.48
2023-03-06T19:28:40.043Z,1.10
2023-03-06T19:31:11.954Z,1.17
2023-03-06T19:33:39.554Z,1.48
2023-03-06T19:36:07.694Z,1.98
2023-03-06T19:38:34.340Z,1.38
2023-03-06T19:41:01.068Z,1.40
2023-03-06T19:43:29.207Z,1.60
2023-03-06T19:45:56.630Z,3.53
2023-03-06T19:48:23.978Z,1.42
2023-03-06T19:50:50.589Z,1.23
2023-03-06T19:53:17.317Z,2.13
2023-03-06T19:55:43.938Z,1.33
2023-03-06T19:58:11.256Z,1.02
2023-03-06T20:00:38.783Z,1.73
2023-03-06T20:03:05.440Z,1.20
2023-03-06T20:05:32.205Z,1.27
2023-03-06T20:07:58.844Z,1.35
2023-03-06T20:10:25.476Z,0.90
2023-03-06T20:12:52.093Z,1.52
2023-03-06T20:15:20.431Z,1.52
2023-03-06T20:17:47.359Z,1.45
2023-03-06T20:20:14.924Z,1.50
2023-03-06T20:22:41.739Z,1.20
2023-03-06T20:25:08.579Z,1.30
2023-03-06T20:27:35.317Z,1.52
2023-03-06T20:30:01.987Z,1.83
2023-03-06T20:32:28.648Z,1.60
2023-03-06T20:34:55.544Z,1.58
2023-03-06T20:37:22.191Z,1.45
2023-03-06T20:39:48.753Z,2.10
2023-03-06T20:42:15.439Z,1.77
2023-03-06T20:44:42.651Z,2.15
2023-03-06T20:47:09.740Z,1.55
2023-03-06T20:49:36.803Z,1.80
2023-03-06T20:52:03.677Z,1.58
2023-03-06T20:54:30.686Z,1.83
2023-03-06T20:56:57.563Z,1.38
2023-03-06T20:59:24.151Z,1.63
2023-03-06T21:01:50.896Z,1.45
2023-03-06T21:04:17.621Z,1.27
2023-03-06T21:06:46.856Z,1.60
2023-03-06T21:09:17.695Z,1.45
2023-03-06T21:11:45.404Z,1.42
2023-03-06T21:14:13.797Z,1.70
2023-03-06T21:16:41.125Z,1.60
2023-03-06T21:19:07.882Z,1.60
2023-03-06T21:21:35.789Z,1.60
2023-03-06T21:24:05.671Z,1.38
2023-03-06T21:26:35.877Z,1.60
2023-03-06T21:29:03.695Z,1.92
2023-03-06T21:31:31.907Z,1.58
2023-03-06T21:33:59.198Z,2.20
2023-03-06T21:36:27.167Z,2.38
2023-03-06T21:38:54.582Z,1.95
2023-03-06T21:41:27.105Z,1.48
2023-03-06T21:43:56.580Z,1.92
2023-03-06T21:46:24.507Z,1.50
2023-03-06T21:48:51.160Z,1.17
2023-03-06T21:51:20.316Z,1.30
2023-03-06T21:53:48.514Z,1.33
2023-03-06T21:56:18.000Z,1.45
2023-03-06T21:58:45.467Z,1.02
2023-03-06T22:01:16.158Z,1.00
2023-03-06T22:03:43.537Z,1.40
2023-03-06T22:06:13.447Z,1.48
2023-03-06T22:08:40.974Z,1.20
2023-03-06T22:11:09.806Z,1.50
2023-03-06T22:13:37.607Z,1.48
2023-03-06T22:16:05.522Z,2.42
2023-03-06T22:18:32.905Z,0.90
2023-03-06T22:20:59.747Z,1.08
2023-03-06T22:23:29.257Z,1.10
2023-03-06T22:25:55.889Z,1.10
2023-03-06T22:28:22.646Z,1.08
2023-03-06T22:30:49.517Z,0.90
2023-03-06T22:33:16.725Z,0.93
2023-03-06T22:35:43.452Z,0.77
2023-03-06T22:38:10.574Z,0.80
2023-03-06T22:40:37.199Z,0.80
2023-03-06T22:43:03.797Z,0.80
2023-03-06T22:45:34.654Z,0.77
2023-03-06T22:48:10.665Z,0.90
2023-03-06T22:50:37.907Z,1.23
2023-03-06T22:53:04.548Z,0.80
2023-03-06T22:55:31.181Z,1.20
2023-03-06T22:57:57.830Z,0.98
2023-03-06T23:00:25.597Z,1.42
2023-03-06T23:02:52.310Z,0.90
2023-03-06T23:05:19.538Z,1.17
2023-03-06T23:07:46.198Z,1.38
2023-03-06T23:10:12.815Z,0.82
2023-03-06T23:12:41.720Z,0.65
2023-03-06T23:15:08.425Z,0.82
2023-03-06T23:17:35.234Z,1.15
2023-03-06T23:20:06.066Z,1.27
2023-03-06T23:22:32.750Z,0.90
2023-03-06T23:24:59.393Z,1.65
2023-03-06T23:27:26.571Z,0.90
2023-03-06T23:29:58.889Z,1.00
2023-03-06T23:32:26.234Z,0.60
2023-03-06T23:34:53.204Z,1.02
2023-03-06T23:37:19.828Z,0.77
2023-03-06T23:39:46.441Z,1.10
2023-03-06T23:42:13.108Z,1.50
2023-03-06T23:44:39.700Z,1.55
2023-03-06T23:47:06.349Z,0.80
2023-03-06T23:49:33.835Z,1.08
2023-03-06T23:52:00.653Z,1.10
2023-03-06T23:54:27.834Z,1.00
2023-03-06T23:56:54.600Z,0.73
2023-03-06T23:59:21.646Z,0.95
